createdAt,value
2018-06-04T00:02:19.024Z,66.80
2018-06-04T00:07:25.641Z,66.70
2018-06-04T00:09:59.670Z,66.60
2018-06-04T00:12:34.303Z,66.60
2018-06-04T00:15:08.215Z,66.40
2018-06-04T00:17:42.572Z,66.00
2018-06-04T00:22:49.327Z,66.00
2018-06-04T00:25:25.180Z,65.80
2018-06-04T00:28:00.200Z,65.70
2018-06-04T00:30:35.797Z,65.80
2018-06-04T00:33:11.360Z,65.50
2018-06-04T00:35:48.498Z,65.70
2018-06-04T00:38:25.533Z,65.50
2018-06-04T00:41:00.685Z,65.60
2018-06-04T00:43:51.661Z,65.70
2018-06-04T00:46:26.143Z,65.70
2018-06-04T00:51:32.948Z,65.40
2018-06-04T00:54:07.280Z,65.20
2018-06-04T00:59:13.955Z,65.50
2018-06-04T01:01:48.088Z,65.40
2018-06-04T01:04:22.311Z,65.40
2018-06-04T01:06:56.941Z,65.30
2018-06-04T01:09:32.133Z,65.00
2018-06-04T01:12:08.400Z,64.10
2018-06-04T01:14:49.242Z,63.70
2018-06-04T01:17:23.086Z,62.80
2018-06-04T01:19:57.867Z,62.60
2018-06-04T01:22:31.620Z,61.90
2018-06-04T01:25:06.936Z,62.00
2018-06-04T01:27:41.075Z,61.60
2018-06-04T01:30:16.082Z,61.40
2018-06-04T01:32:50.441Z,61.20
2018-06-04T01:35:29.043Z,60.80
2018-06-04T01:38:03.629Z,60.70
2018-06-04T01:51:41.530Z,61.00
2018-06-04T01:54:15.459Z,60.80
2018-06-04T01:56:49.146Z,61.80
2018-06-04T01:59:23.065Z,61.40
2018-06-04T02:04:31.209Z,60.00
2018-06-04T02:07:26.728Z,59.40
2018-06-04T02:10:00.702Z,59.10
2018-06-04T02:12:35.131Z,59.10
2018-06-04T02:15:11.711Z,59.30
2018-06-04T02:17:46.208Z,59.40
2018-06-04T02:20:20.074Z,59.50
2018-06-04T02:22:53.748Z,59.50
2018-06-04T02:25:28.031Z,58.70
2018-06-04T02:28:02.733Z,58.30
2018-06-04T02:30:36.463Z,58.00
2018-06-04T02:33:11.822Z,58.00
2018-06-04T02:35:45.814Z,58.10
2018-06-04T02:38:19.650Z,58.20
2018-06-04T02:40:53.842Z,58.00
2018-06-04T02:43:29.106Z,58.20
2018-06-04T02:46:03.058Z,57.50
2018-06-04T02:48:37.783Z,57.00
2018-06-04T02:51:12.095Z,57.10
2018-06-04T02:56:23.473Z,56.00
2018-06-04T02:58:57.733Z,55.80
2018-06-04T03:01:32.051Z,55.60
2018-06-04T03:04:06.278Z,55.40
2018-06-04T03:06:40.301Z,55.20
2018-06-04T03:09:14.653Z,55.10
2018-06-04T03:11:49.026Z,54.90
2018-06-04T03:16:55.755Z,54.80
2018-06-04T03:19:29.825Z,54.80
2018-06-04T03:22:03.656Z,54.90
2018-06-04T03:24:38.400Z,54.50
2018-06-04T03:27:12.530Z,54.40
2018-06-04T03:29:47.331Z,53.90
2018-06-04T03:32:22.777Z,54.00
2018-06-04T03:40:02.760Z,53.40
2018-06-04T03:45:11.866Z,53.20
2018-06-04T03:47:46.327Z,52.90
2018-06-04T03:50:20.387Z,52.70
2018-06-04T03:52:54.689Z,52.40
2018-06-04T03:55:30.248Z,52.10
2018-06-04T03:58:04.770Z,51.80
2018-06-04T04:00:39.080Z,51.50
2018-06-04T04:03:12.999Z,51.70
2018-06-04T04:05:47.041Z,51.10
2018-06-04T04:08:20.988Z,51.10
2018-06-04T04:10:55.779Z,51.00
2018-06-04T04:16:02.919Z,50.60
2018-06-04T04:18:36.890Z,50.20
2018-06-04T04:26:47.498Z,50.10
2018-06-04T04:29:21.567Z,50.10
2018-06-04T04:31:55.690Z,50.20
2018-06-04T04:34:29.764Z,50.20
2018-06-04T04:37:04.367Z,49.80
2018-06-04T04:39:38.227Z,49.60
2018-06-04T04:42:12.204Z,49.20
2018-06-04T04:44:46.623Z,49.00
2018-06-04T04:47:21.357Z,49.00
2018-06-04T04:49:55.932Z,49.00
2018-06-04T04:52:30.275Z,48.80
2018-06-04T04:55:04.218Z,48.80
2018-06-04T04:57:39.574Z,48.70
2018-06-04T05:00:14.133Z,48.60
2018-06-04T05:02:48.579Z,48.70
2018-06-04T05:05:23.437Z,48.90
2018-06-04T05:07:57.720Z,49.00
2018-06-04T05:10:31.726Z,49.10
2018-06-04T05:13:05.858Z,49.10
2018-06-04T05:15:40.216Z,49.10
2018-06-04T05:18:14.517Z,49.50
2018-06-04T05:20:50.048Z,49.10
2018-06-04T05:23:24.280Z,49.10
2018-06-04T05:25:58.558Z,48.90
2018-06-04T05:28:33.447Z,48.70
2018-06-04T05:31:07.441Z,48.70
2018-06-04T05:33:42.363Z,48.60
2018-06-04T05:36:16.957Z,48.60
2018-06-04T05:38:51.123Z,48.50
2018-06-04T05:41:26.051Z,48.20
2018-06-04T05:44:00.375Z,48.10
2018-06-04T05:46:34.687Z,47.80
2018-06-04T05:49:10.111Z,47.40
2018-06-04T05:51:44.232Z,48.00
2018-06-04T05:54:18.627Z,48.20
2018-06-04T05:56:53.082Z,48.20
2018-06-04T05:59:27.951Z,48.50
2018-06-04T06:02:02.487Z,48.90
2018-06-04T06:04:36.522Z,48.90
2018-06-04T06:07:10.395Z,48.90
2018-06-04T06:09:45.081Z,49.00
2018-06-04T06:12:19.340Z,49.30
2018-06-04T06:14:53.569Z,49.30
2018-06-04T06:20:00.830Z,49.90
2018-06-04T06:22:35.624Z,49.80
2018-06-04T06:25:09.987Z,49.90
2018-06-04T06:27:44.182Z,49.90
2018-06-04T06:30:18.329Z,50.10
2018-06-04T06:32:52.467Z,50.20
2018-06-04T06:37:59.480Z,50.30
2018-06-04T06:40:33.737Z,50.30
2018-06-04T06:43:08.497Z,51.20
2018-06-04T06:45:42.963Z,50.40
2018-06-04T06:48:17.245Z,50.40
2018-06-04T06:50:51.509Z,50.60
2018-06-04T06:53:25.745Z,50.60
2018-06-04T06:56:31.126Z,50.70
2018-06-04T06:59:05.627Z,50.80
2018-06-04T07:01:40.876Z,50.90
2018-06-04T07:06:47.618Z,50.90
2018-06-04T07:09:22.150Z,51.20
2018-06-04T07:11:56.424Z,51.20
2018-06-04T07:14:30.540Z,51.40
2018-06-04T07:19:38.982Z,51.30
2018-06-04T07:22:13.028Z,51.10
2018-06-04T07:24:46.964Z,51.00
2018-06-04T07:27:22.519Z,51.00
2018-06-04T07:29:56.516Z,51.20
2018-06-04T07:32:30.859Z,51.50
2018-06-04T07:35:04.745Z,51.70
2018-06-04T07:37:39.101Z,52.00
2018-06-04T07:40:13.166Z,52.00
2018-06-04T07:42:47.169Z,51.70
2018-06-04T07:45:22.214Z,52.00
2018-06-04T07:47:56.784Z,51.70
2018-06-04T07:50:31.307Z,51.60
2018-06-04T07:53:06.044Z,51.30
2018-06-04T07:55:39.863Z,51.50
2018-06-04T07:58:13.793Z,51.50
2018-06-04T08:00:48.338Z,51.30
2018-06-04T08:03:23.228Z,50.90
2018-06-04T08:05:57.739Z,50.90
2018-06-04T08:08:31.954Z,50.80
2018-06-04T08:11:06.437Z,50.90
2018-06-04T08:13:41.820Z,51.80
2018-06-04T08:16:15.905Z,51.80
2018-06-04T08:18:49.731Z,51.90
2018-06-04T08:21:23.788Z,52.00
2018-06-04T08:23:58.310Z,51.80
2018-06-04T08:26:32.510Z,52.30
2018-06-04T08:29:07.028Z,51.80
2018-06-04T08:31:41.124Z,52.00
2018-06-04T08:34:16.347Z,52.10
2018-06-04T08:36:50.673Z,52.10
2018-06-04T08:39:25.046Z,52.10
2018-06-04T08:41:59.183Z,52.10
2018-06-04T08:44:33.342Z,52.00
2018-06-04T08:47:07.381Z,52.00
2018-06-04T08:49:41.596Z,52.00
2018-06-04T08:52:15.853Z,52.10
2018-06-04T08:57:22.410Z,52.30
2018-06-04T08:59:56.776Z,52.00
2018-06-04T09:02:31.410Z,52.00
2018-06-04T09:07:39.840Z,51.80
2018-06-04T09:10:14.954Z,51.90
2018-06-04T09:15:21.713Z,51.80
2018-06-04T09:17:55.919Z,51.80
2018-06-04T09:20:29.822Z,51.90
2018-06-04T09:23:04.102Z,51.90
2018-06-04T09:25:38.953Z,52.00
2018-06-04T09:28:13.023Z,53.00
2018-06-04T09:30:47.233Z,52.40
2018-06-04T09:33:21.478Z,52.60
2018-06-04T09:35:55.489Z,52.10
2018-06-04T09:41:02.503Z,52.20
2018-06-04T09:43:37.179Z,52.10
2018-06-04T09:46:11.650Z,51.80
2018-06-04T09:51:23.863Z,51.10
2018-06-04T09:56:32.369Z,51.20
2018-06-04T09:59:07.435Z,51.10
2018-06-04T10:01:41.563Z,50.60
2018-06-04T10:04:16.443Z,50.20
2018-06-04T10:06:51.360Z,50.10
2018-06-04T10:09:26.363Z,49.80
2018-06-04T10:12:01.249Z,49.60
2018-06-04T10:17:07.827Z,48.80
2018-06-04T10:19:41.847Z,48.50
2018-06-04T10:22:16.019Z,48.50
2018-06-04T10:24:50.294Z,48.70
2018-06-04T10:27:24.314Z,48.70
2018-06-04T10:29:58.312Z,48.50
2018-06-04T10:32:32.304Z,49.10
2018-06-04T10:35:06.210Z,48.70
2018-06-04T10:37:41.253Z,48.90
2018-06-04T10:40:15.858Z,49.00
2018-06-04T10:42:50.789Z,48.90
2018-06-04T10:45:25.201Z,48.70
2018-06-04T10:47:59.577Z,48.80
2018-06-04T10:50:33.387Z,49.30
2018-06-04T10:53:07.779Z,49.70
2018-06-04T10:55:41.998Z,50.90
2018-06-04T10:58:16.381Z,50.30
2018-06-04T11:00:50.480Z,50.60
2018-06-04T11:03:58.262Z,50.80
2018-06-04T11:06:32.436Z,50.90
2018-06-04T11:09:10.749Z,51.20
2018-06-04T11:11:46.423Z,51.60
2018-06-04T11:14:21.139Z,51.80
2018-06-04T11:16:55.229Z,52.00
2018-06-04T11:19:31.948Z,52.20
2018-06-04T11:22:06.451Z,52.60
2018-06-04T11:24:40.679Z,52.90
2018-06-04T11:27:15.189Z,53.10
2018-06-04T11:29:49.529Z,53.50
2018-06-04T11:32:23.656Z,53.60
2018-06-04T11:34:58.434Z,53.80
2018-06-04T11:37:32.642Z,53.90
2018-06-04T11:42:39.778Z,54.20
2018-06-04T11:45:14.027Z,54.40
2018-06-04T11:47:48.127Z,54.70
2018-06-04T11:50:23.157Z,55.40
2018-06-04T11:52:57.708Z,55.30
2018-06-04T11:55:32.504Z,54.80
2018-06-04T11:58:06.760Z,54.70
2018-06-04T12:00:41.147Z,54.80
2018-06-04T12:03:17.740Z,54.60
2018-06-04T12:05:52.218Z,54.80
2018-06-04T12:08:26.358Z,54.90
2018-06-04T12:11:01.490Z,55.10
2018-06-04T12:13:35.492Z,55.20
2018-06-04T12:16:10.495Z,55.30
2018-06-04T12:18:45.027Z,55.80
2018-06-04T12:21:49.339Z,56.10
2018-06-04T12:24:24.127Z,56.30
2018-06-04T12:26:58.226Z,56.30
2018-06-04T12:29:32.382Z,56.50
2018-06-04T12:32:06.453Z,56.60
2018-06-04T12:34:40.535Z,56.40
2018-06-04T12:37:14.865Z,56.40
2018-06-04T12:39:48.982Z,56.40
2018-06-04T12:42:24.625Z,56.50
2018-06-04T12:44:58.756Z,56.50
2018-06-04T12:47:33.195Z,56.60
2018-06-04T12:50:07.241Z,56.70
2018-06-04T12:52:42.026Z,57.20
2018-06-04T12:55:16.175Z,57.40
2018-06-04T13:00:23.009Z,57.90
2018-06-04T13:05:29.658Z,58.20
2018-06-04T13:08:04.019Z,58.20
2018-06-04T13:10:39.138Z,58.10
2018-06-04T13:13:17.520Z,58.00
2018-06-04T13:15:52.261Z,57.90
2018-06-04T13:20:58.663Z,57.90
2018-06-04T13:23:33.997Z,57.80
2018-06-04T13:26:09.674Z,57.80
2018-06-04T13:28:44.003Z,57.70
2018-06-04T13:31:17.729Z,57.90
2018-06-04T13:33:52.170Z,58.10
2018-06-04T13:36:26.872Z,58.10
2018-06-04T13:39:01.775Z,58.20
2018-06-04T13:41:35.930Z,58.40
2018-06-04T13:44:10.234Z,58.50
2018-06-04T13:46:44.328Z,58.40
2018-06-04T13:49:18.590Z,58.30
2018-06-04T13:51:52.673Z,58.20
2018-06-04T13:54:26.724Z,58.80
2018-06-04T13:59:33.942Z,57.90
2018-06-04T14:02:08.099Z,57.50
2018-06-04T14:04:42.456Z,57.30
2018-06-04T14:07:16.435Z,57.20
2018-06-04T14:09:50.180Z,57.30
2018-06-04T14:12:24.021Z,57.40
2018-06-04T14:17:32.200Z,58.30
2018-06-04T14:20:06.495Z,58.50
2018-06-04T14:22:40.501Z,58.50
2018-06-04T14:25:14.604Z,58.50
2018-06-04T14:27:48.379Z,58.40
2018-06-04T14:30:22.601Z,58.50
2018-06-04T14:35:29.541Z,59.00
2018-06-04T14:38:03.691Z,58.60
2018-06-04T14:43:11.827Z,58.80
2018-06-04T14:45:46.315Z,58.80
2018-06-04T14:48:21.345Z,59.10
2018-06-04T14:50:55.330Z,59.10
2018-06-04T14:53:29.398Z,59.20
2018-06-04T14:58:37.214Z,59.90
2018-06-04T15:03:43.687Z,58.90
2018-06-04T15:06:17.327Z,59.00
2018-06-04T15:08:51.837Z,59.00
2018-06-04T15:11:25.954Z,58.80
2018-06-04T15:16:33.662Z,58.90
2018-06-04T15:19:07.595Z,59.00
2018-06-04T15:21:41.827Z,59.50
2018-06-04T15:24:15.728Z,59.30
2018-06-04T15:26:49.912Z,59.40
2018-06-04T15:29:24.255Z,59.40
2018-06-04T15:31:58.094Z,59.40
2018-06-04T15:34:32.610Z,59.50
2018-06-04T15:37:06.344Z,59.50
2018-06-04T15:39:40.461Z,59.50
2018-06-04T15:42:13.995Z,59.50
2018-06-04T15:47:20.681Z,60.20
2018-06-04T15:52:27.284Z,58.90
2018-06-04T15:57:33.506Z,59.00
2018-06-04T16:00:07.934Z,58.70
2018-06-04T16:02:41.647Z,58.60
2018-06-04T16:05:15.628Z,58.40
2018-06-04T16:07:49.452Z,58.30
2018-06-04T16:10:23.393Z,58.30
2018-06-04T16:12:57.457Z,58.20
2018-06-04T16:15:31.265Z,58.30
2018-06-04T16:18:06.504Z,58.20
2018-06-04T16:20:40.652Z,58.90
2018-06-04T16:23:14.822Z,58.30
2018-06-04T16:25:49.089Z,58.40
2018-06-04T16:28:23.070Z,58.40
2018-06-04T16:30:56.987Z,58.30
2018-06-04T16:33:31.367Z,58.40
2018-06-04T16:36:05.455Z,58.40
2018-06-04T16:38:39.559Z,58.40
2018-06-04T16:41:13.548Z,58.30
2018-06-04T16:43:47.684Z,58.30
2018-06-04T16:46:21.584Z,58.50
2018-06-04T16:48:56.276Z,58.60
2018-06-04T16:51:30.152Z,58.60
2018-06-04T16:54:04.303Z,58.60
2018-06-04T16:56:38.679Z,59.60
2018-06-04T17:04:17.892Z,58.90
2018-06-04T17:06:52.002Z,58.90
2018-06-04T17:09:26.559Z,58.90
2018-06-04T17:12:00.603Z,59.00
2018-06-04T17:17:09.576Z,59.50
2018-06-04T17:19:45.369Z,59.20
2018-06-04T17:22:19.625Z,59.20
2018-06-04T17:24:53.767Z,59.20
2018-06-04T17:27:27.777Z,59.30
2018-06-04T17:30:02.446Z,59.50
2018-06-04T17:32:36.240Z,59.50
2018-06-04T17:35:10.501Z,59.50
2018-06-04T17:42:49.175Z,59.70
2018-06-04T17:45:23.102Z,59.80
2018-06-04T17:47:57.259Z,59.70
2018-06-04T17:50:31.605Z,59.70
2018-06-04T17:53:05.884Z,59.80
2018-06-04T17:55:40.010Z,59.80
2018-06-04T17:58:14.251Z,59.80
2018-06-04T18:00:48.085Z,59.80
2018-06-04T18:03:22.693Z,59.80
2018-06-04T18:05:56.948Z,59.90
2018-06-04T18:08:31.118Z,60.00
2018-06-04T18:13:37.748Z,60.20
2018-06-04T18:16:12.430Z,60.20
2018-06-04T18:18:46.340Z,60.20
2018-06-04T18:21:21.600Z,60.40
2018-06-04T18:23:55.916Z,60.30
2018-06-04T18:26:31.268Z,60.30
2018-06-04T18:29:06.037Z,60.00
2018-06-04T18:31:41.267Z,59.90
2018-06-04T18:34:15.645Z,59.90
2018-06-04T18:36:49.720Z,59.80
2018-06-04T18:44:29.264Z,59.60
2018-06-04T18:47:03.474Z,59.50
2018-06-04T18:49:37.693Z,59.40
2018-06-04T18:52:11.793Z,59.40
2018-06-04T18:54:45.958Z,59.30
2018-06-04T18:57:20.402Z,59.30
2018-06-04T18:59:54.702Z,59.30
2018-06-04T19:05:01.980Z,59.60
2018-06-04T19:07:36.654Z,59.60
2018-06-04T19:10:10.605Z,59.70
2018-06-04T19:12:44.751Z,59.70
2018-06-04T19:20:25.457Z,60.90
2018-06-04T19:23:00.724Z,60.10
2018-06-04T19:25:35.203Z,60.30
2018-06-04T19:28:09.432Z,60.30
2018-06-04T19:30:43.451Z,60.40
2018-06-04T19:35:50.235Z,60.50
2018-06-04T19:38:24.414Z,60.50
2018-06-04T19:40:58.489Z,60.60
2018-06-04T19:43:32.633Z,60.60
2018-06-04T19:46:06.844Z,60.60
2018-06-04T19:48:41.246Z,60.30
2018-06-04T19:51:15.529Z,60.20
2018-06-04T19:53:49.848Z,60.20
2018-06-04T19:56:23.829Z,60.60
2018-06-04T19:58:57.948Z,61.00
2018-06-04T20:01:32.131Z,60.20
2018-06-04T20:04:06.403Z,60.20
2018-06-04T20:06:40.907Z,60.20
2018-06-04T20:09:15.256Z,60.10
2018-06-04T20:11:49.535Z,60.20
2018-06-04T20:14:23.536Z,60.20
2018-06-04T20:16:57.810Z,60.20
2018-06-04T20:19:32.224Z,60.10
2018-06-04T20:22:06.153Z,59.90
2018-06-04T20:24:41.216Z,59.90
2018-06-04T20:27:15.532Z,59.80
2018-06-04T20:29:49.709Z,60.60
2018-06-04T20:32:24.223Z,59.70
2018-06-04T20:34:58.290Z,60.40
2018-06-04T20:37:32.474Z,59.80
2018-06-04T20:40:06.651Z,59.80
2018-06-04T20:42:41.047Z,59.90
2018-06-04T20:45:15.117Z,59.90
2018-06-04T20:47:48.915Z,60.00
2018-06-04T20:50:22.961Z,60.00
2018-06-04T20:52:57.211Z,60.10
2018-06-04T20:55:31.761Z,60.20
2018-06-04T20:58:05.871Z,60.20
2018-06-04T21:00:40.254Z,60.10
2018-06-04T21:03:14.294Z,60.10
2018-06-04T21:05:48.418Z,60.10
2018-06-04T21:08:22.596Z,60.20
2018-06-04T21:10:56.707Z,60.10
2018-06-04T21:13:31.612Z,60.20
2018-06-04T21:16:05.642Z,60.40
2018-06-04T21:18:39.788Z,60.40
2018-06-04T21:21:14.241Z,60.40
2018-06-04T21:23:48.112Z,60.40
2018-06-04T21:26:23.727Z,60.30
2018-06-04T21:28:57.840Z,60.20
2018-06-04T21:31:31.953Z,60.10
2018-06-04T21:34:06.546Z,60.10
2018-06-04T21:36:40.532Z,60.20
2018-06-04T21:39:14.520Z,60.30
2018-06-04T21:41:48.840Z,60.40
2018-06-04T21:44:23.144Z,60.30
2018-06-04T21:46:57.161Z,60.20
2018-06-04T21:49:31.537Z,60.30
2018-06-04T21:54:39.123Z,60.40
2018-06-04T21:57:13.238Z,60.50
2018-06-04T21:59:47.388Z,60.50
2018-06-04T22:02:21.448Z,60.50
2018-06-04T22:04:55.989Z,60.60
2018-06-04T22:07:30.019Z,60.70
2018-06-04T22:10:04.530Z,60.00
2018-06-04T22:12:38.552Z,60.70
2018-06-04T22:20:17.509Z,61.20
2018-06-04T22:22:51.549Z,61.50
2018-06-04T22:25:25.716Z,61.50
2018-06-04T22:28:00.337Z,61.90
2018-06-04T22:30:34.620Z,61.90
2018-06-04T22:33:08.527Z,62.30
2018-06-04T22:35:42.665Z,62.50
2018-06-04T22:38:16.858Z,62.80
2018-06-04T22:40:51.928Z,62.90
2018-06-04T22:43:26.316Z,63.20
2018-06-04T22:46:00.322Z,63.30
2018-06-04T22:48:34.693Z,63.60
2018-06-04T22:51:09.034Z,63.70
2018-06-04T22:53:43.254Z,63.60
2018-06-04T22:58:51.370Z,63.60
2018-06-04T23:01:25.799Z,63.90
2018-06-04T23:04:00.127Z,63.50
2018-06-04T23:06:34.184Z,63.40
2018-06-04T23:09:10.114Z,63.30
2018-06-04T23:11:44.306Z,63.20
2018-06-04T23:14:18.609Z,63.30
2018-06-04T23:16:53.007Z,63.30
2018-06-04T23:19:27.142Z,63.20
2018-06-04T23:22:01.281Z,63.20
2018-06-04T23:24:35.537Z,63.20
2018-06-04T23:27:09.730Z,63.30
2018-06-04T23:29:44.722Z,63.30
2018-06-04T23:32:18.918Z,63.30
2018-06-04T23:34:53.393Z,63.30
2018-06-04T23:37:27.392Z,64.10
2018-06-04T23:45:06.539Z,64.00
2018-06-04T23:47:41.014Z,63.10
2018-06-04T23:50:14.873Z,63.00
2018-06-04T23:52:48.630Z,62.90
2018-06-04T23:55:22.796Z,62.80
2018-06-04T23:57:57.046Z,62.50
